createdAt,value
2023-01-05T00:01:57.784Z,94934.16
2023-01-05T00:04:24.755Z,94929.47
2023-01-05T00:06:52.543Z,94926.94
2023-01-05T00:09:19.484Z,94936.47
2023-01-05T00:12:04.899Z,94927.16
2023-01-05T00:14:52.791Z,94928.63
2023-01-05T00:17:43.174Z,94910.56
2023-01-05T00:20:34.417Z,94906.63
2023-01-05T00:23:02.186Z,94902.41
2023-01-05T00:25:31.204Z,94904.44
2023-01-05T00:27:59.730Z,94901.84
2023-01-05T00:30:30.442Z,94894.00
2023-01-05T00:32:57.105Z,94886.84
2023-01-05T00:35:24.415Z,94889.41
2023-01-05T00:37:51.434Z,94889.22
2023-01-05T00:40:20.339Z,94893.53
2023-01-05T00:42:47.599Z,94891.53
2023-01-05T00:45:16.431Z,94896.31
2023-01-05T00:47:43.447Z,94887.69
2023-01-05T00:50:13.531Z,94887.97
2023-01-05T00:52:40.231Z,94893.47
2023-01-05T00:55:07.355Z,94900.75
2023-01-05T00:57:34.041Z,94889.53
2023-01-05T01:00:02.282Z,94892.13
2023-01-05T01:02:29.247Z,94899.16
2023-01-05T01:04:56.107Z,94893.00
2023-01-05T01:07:22.859Z,94895.16
2023-01-05T01:09:49.494Z,94896.72
2023-01-05T01:12:16.228Z,94893.25
2023-01-05T01:14:46.109Z,94904.50
2023-01-05T01:17:12.833Z,94893.81
2023-01-05T01:19:39.443Z,94890.56
2023-01-05T01:22:06.081Z,94884.91
2023-01-05T01:24:32.772Z,94891.66
2023-01-05T01:27:01.941Z,94885.53
2023-01-05T01:29:29.659Z,94873.63
2023-01-05T01:31:56.395Z,94861.63
2023-01-05T01:34:23.463Z,94866.78
2023-01-05T01:36:50.334Z,94853.22
2023-01-05T01:39:17.064Z,94853.44
2023-01-05T01:41:43.806Z,94844.09
2023-01-05T01:44:47.679Z,94845.25
2023-01-05T01:47:31.536Z,94840.06
2023-01-05T01:50:02.844Z,94832.97
2023-01-05T01:52:31.808Z,94829.00
2023-01-05T01:54:59.131Z,94829.13
2023-01-05T01:57:28.128Z,94818.97
2023-01-05T01:59:56.031Z,94817.31
2023-01-05T02:02:23.645Z,94817.28
2023-01-05T02:04:51.272Z,94815.84
2023-01-05T02:07:17.975Z,94806.22
2023-01-05T02:09:45.052Z,94807.47
2023-01-05T02:12:35.829Z,94806.88
2023-01-05T02:15:14.459Z,94805.72
2023-01-05T02:17:57.432Z,94794.81
2023-01-05T02:20:43.386Z,94792.28
2023-01-05T02:23:12.888Z,94796.81
2023-01-05T02:26:08.533Z,94791.22
2023-01-05T02:29:02.868Z,94795.00
2023-01-05T02:31:40.565Z,94792.47
2023-01-05T02:34:22.947Z,94793.84
2023-01-05T02:36:59.977Z,94802.41
2023-01-05T02:39:33.588Z,94808.66
2023-01-05T02:42:03.596Z,94804.03
2023-01-05T02:44:32.610Z,94795.25
2023-01-05T02:47:01.625Z,94795.53
2023-01-05T02:49:32.011Z,94788.00
2023-01-05T02:52:02.356Z,94780.59
2023-01-05T02:54:45.888Z,94784.88
2023-01-05T02:57:18.023Z,94781.28
2023-01-05T02:59:50.102Z,94771.16
2023-01-05T03:02:29.911Z,94757.22
2023-01-05T03:05:04.408Z,94763.00
2023-01-05T03:07:34.876Z,94758.03
2023-01-05T03:10:22.018Z,94761.47
2023-01-05T03:13:09.385Z,94753.28
2023-01-05T03:15:39.541Z,94756.31
2023-01-05T03:18:09.526Z,94738.66
2023-01-05T03:20:40.361Z,94739.19
2023-01-05T03:23:39.128Z,94725.41
2023-01-05T03:26:26.921Z,94715.53
2023-01-05T03:29:18.228Z,94712.03
2023-01-05T03:32:06.114Z,94715.34
2023-01-05T03:35:02.565Z,94705.47
2023-01-05T03:38:00.184Z,94712.16
2023-01-05T03:40:31.042Z,94707.22
2023-01-05T03:42:58.219Z,94715.94
2023-01-05T03:45:28.552Z,94711.47
2023-01-05T03:47:56.123Z,94716.88
2023-01-05T03:50:22.800Z,94721.63
2023-01-05T03:52:49.413Z,94725.41
2023-01-05T03:55:16.138Z,94727.09
2023-01-05T03:57:42.755Z,94718.53
2023-01-05T04:00:10.178Z,94714.59
2023-01-05T04:02:37.090Z,94715.13
2023-01-05T04:05:04.040Z,94710.75
2023-01-05T04:07:30.603Z,94706.25
2023-01-05T04:09:57.307Z,94710.31
2023-01-05T04:12:23.917Z,94701.06
2023-01-05T04:14:50.512Z,94710.28
2023-01-05T04:17:17.181Z,94698.97
2023-01-05T04:19:43.761Z,94704.34
2023-01-05T04:22:10.399Z,94698.13
2023-01-05T04:24:37.053Z,94694.16
2023-01-05T04:27:03.786Z,94691.34
2023-01-05T04:29:30.418Z,94687.91
2023-01-05T04:31:57.049Z,94683.16
2023-01-05T04:34:23.626Z,94687.91
2023-01-05T04:36:50.821Z,94684.09
2023-01-05T04:39:17.525Z,94691.78
2023-01-05T04:41:44.246Z,94690.50
2023-01-05T04:44:10.972Z,94690.50
2023-01-05T04:46:37.657Z,94692.88
2023-01-05T04:49:07.402Z,94699.94
2023-01-05T04:51:34.101Z,94690.38
2023-01-05T04:54:00.745Z,94703.44
2023-01-05T04:56:27.493Z,94698.56
2023-01-05T04:58:54.130Z,94712.38
2023-01-05T05:01:20.977Z,94721.53
2023-01-05T05:03:47.807Z,94722.38
2023-01-05T05:06:14.449Z,94716.19
2023-01-05T05:08:41.164Z,94710.69
2023-01-05T05:11:07.811Z,94712.06
2023-01-05T05:13:34.480Z,94712.97
2023-01-05T05:16:02.374Z,94713.84
2023-01-05T05:18:29.150Z,94717.28
2023-01-05T05:20:55.920Z,94726.34
2023-01-05T05:23:22.606Z,94732.22
2023-01-05T05:25:51.311Z,94718.69
2023-01-05T05:28:18.900Z,94721.59
2023-01-05T05:30:45.576Z,94712.50
2023-01-05T05:33:12.223Z,94710.91
2023-01-05T05:35:38.816Z,94704.66
2023-01-05T05:38:05.431Z,94699.25
2023-01-05T05:40:32.140Z,94707.81
2023-01-05T05:42:58.915Z,94688.78
2023-01-05T05:45:25.597Z,94701.56
2023-01-05T05:47:52.296Z,94688.00
2023-01-05T05:50:18.963Z,94681.31
2023-01-05T05:52:45.628Z,94670.53
2023-01-05T05:55:12.340Z,94667.19
2023-01-05T05:57:39.021Z,94658.16
2023-01-05T06:00:06.529Z,94666.50
2023-01-05T06:02:33.296Z,94662.34
2023-01-05T06:04:59.964Z,94665.03
2023-01-05T06:07:26.709Z,94668.16
2023-01-05T06:09:53.304Z,94668.34
2023-01-05T06:12:19.935Z,94663.16
2023-01-05T06:14:46.634Z,94661.06
2023-01-05T06:17:13.297Z,94656.09
2023-01-05T06:19:39.994Z,94655.50
2023-01-05T06:22:06.664Z,94671.38
2023-01-05T06:24:33.532Z,94663.31
2023-01-05T06:27:00.203Z,94650.44
2023-01-05T06:29:26.847Z,94657.69
2023-01-05T06:31:53.539Z,94652.53
2023-01-05T06:34:20.140Z,94655.66
2023-01-05T06:36:47.024Z,94651.41
2023-01-05T06:39:13.867Z,94643.44
2023-01-05T06:41:40.484Z,94646.91
2023-01-05T06:44:07.119Z,94640.94
2023-01-05T06:46:33.867Z,94645.34
2023-01-05T06:49:00.482Z,94656.78
2023-01-05T06:51:27.138Z,94648.59
2023-01-05T06:53:53.778Z,94654.53
2023-01-05T06:56:21.582Z,94650.81
2023-01-05T06:58:48.159Z,94656.44
2023-01-05T07:01:14.967Z,94667.84
2023-01-05T07:03:41.723Z,94657.38
2023-01-05T07:06:14.454Z,94663.56
2023-01-05T07:08:41.623Z,94650.25
2023-01-05T07:11:08.196Z,94641.22
2023-01-05T07:13:34.831Z,94635.66
2023-01-05T07:16:02.318Z,94644.84
2023-01-05T07:18:28.938Z,94640.56
2023-01-05T07:20:55.543Z,94645.25
2023-01-05T07:23:22.198Z,94640.56
2023-01-05T07:25:48.813Z,94639.91
2023-01-05T07:28:16.535Z,94636.69
2023-01-05T07:30:43.128Z,94639.84
2023-01-05T07:33:09.746Z,94629.75
2023-01-05T07:35:36.441Z,94629.06
2023-01-05T07:38:03.077Z,94624.06
2023-01-05T07:40:29.757Z,94617.00
2023-01-05T07:42:56.342Z,94613.28
2023-01-05T07:45:23.008Z,94613.22
2023-01-05T07:47:49.796Z,94613.47
2023-01-05T07:50:16.550Z,94598.06
2023-01-05T07:52:43.221Z,94597.25
2023-01-05T07:55:10.184Z,94602.56
2023-01-05T07:57:36.912Z,94604.63
2023-01-05T08:00:05.349Z,94603.88
2023-01-05T08:02:36.098Z,94607.72
2023-01-05T08:05:03.358Z,94601.38
2023-01-05T08:07:29.971Z,94597.66
2023-01-05T08:10:15.293Z,94600.66
2023-01-05T08:13:00.315Z,94612.03
2023-01-05T08:15:27.346Z,94600.66
2023-01-05T08:17:53.928Z,94588.81
2023-01-05T08:20:20.707Z,94592.06
2023-01-05T08:22:54.235Z,94595.72
2023-01-05T08:25:21.496Z,94602.94
2023-01-05T08:27:48.514Z,94604.09
2023-01-05T08:30:15.388Z,94605.34
2023-01-05T08:32:42.563Z,94606.31
2023-01-05T08:35:09.633Z,94596.38
2023-01-05T08:37:36.283Z,94602.28
2023-01-05T08:40:03.631Z,94588.00
2023-01-05T08:42:30.238Z,94594.69
2023-01-05T08:44:56.851Z,94594.47
2023-01-05T08:47:27.975Z,94600.31
2023-01-05T08:49:55.510Z,94587.72
2023-01-05T08:52:23.391Z,94586.88
2023-01-05T08:54:50.612Z,94581.88
2023-01-05T08:57:17.262Z,94578.16
2023-01-05T08:59:43.916Z,94581.66
2023-01-05T09:02:13.657Z,94584.63
2023-01-05T09:04:40.360Z,94567.22
2023-01-05T09:07:06.966Z,94569.00
2023-01-05T09:09:33.686Z,94560.06
2023-01-05T09:12:00.365Z,94545.81
2023-01-05T09:14:26.979Z,94538.97
2023-01-05T09:17:07.002Z,94529.06
2023-01-05T09:19:34.686Z,94520.81
2023-01-05T09:22:02.557Z,94518.22
2023-01-05T09:24:29.294Z,94502.53
2023-01-05T09:26:56.854Z,94486.50
2023-01-05T09:29:23.562Z,94474.72
2023-01-05T09:31:50.374Z,94474.38
2023-01-05T09:34:19.103Z,94476.94
2023-01-05T09:36:46.193Z,94478.28
2023-01-05T09:39:12.872Z,94484.00
2023-01-05T09:41:59.089Z,94491.66
2023-01-05T09:44:55.398Z,94468.41
2023-01-05T09:47:46.887Z,94460.19
2023-01-05T09:50:21.237Z,94442.91
2023-01-05T09:52:49.688Z,94443.72
2023-01-05T09:55:18.540Z,94438.91
2023-01-05T09:58:10.561Z,94434.47
2023-01-05T10:00:43.391Z,94426.16
2023-01-05T10:03:53.478Z,94416.84
2023-01-05T10:06:13.734Z,94423.31
2023-01-05T10:08:45.274Z,94430.06
2023-01-05T10:11:47.931Z,94417.56
2023-01-05T10:14:35.394Z,94418.28
2023-01-05T10:17:39.190Z,94412.16
2023-01-05T10:19:49.465Z,94414.41
2023-01-05T10:22:28.376Z,94407.72
2023-01-05T10:25:04.713Z,94403.88
2023-01-05T10:27:44.388Z,94405.56
2023-01-05T10:30:22.499Z,94399.31
2023-01-05T10:33:21.934Z,94395.41
2023-01-05T10:36:02.694Z,94394.50
2023-01-05T10:38:39.718Z,94401.25
2023-01-05T10:41:29.875Z,94390.66
2023-01-05T10:44:03.233Z,94388.78
2023-01-05T10:46:37.875Z,94377.94
2023-01-05T10:49:08.803Z,94367.00
2023-01-05T10:51:36.574Z,94357.53
2023-01-05T10:54:04.837Z,94360.19
2023-01-05T10:56:33.148Z,94357.06
2023-01-05T10:59:11.528Z,94354.13
2023-01-05T11:01:42.717Z,94352.44
2023-01-05T11:04:29.281Z,94353.31
2023-01-05T11:07:07.374Z,94342.88
2023-01-05T11:09:40.374Z,94349.91
2023-01-05T11:12:19.379Z,94343.19
2023-01-05T11:14:57.809Z,94332.94
2023-01-05T11:17:28.451Z,94342.59
2023-01-05T11:19:57.510Z,94329.56
2023-01-05T11:22:34.815Z,94329.19
2023-01-05T11:25:23.619Z,94331.19
2023-01-05T11:28:08.906Z,94325.25
2023-01-05T11:30:36.503Z,94331.19
2023-01-05T11:33:03.411Z,94325.59
2023-01-05T11:35:37.802Z,94320.97
2023-01-05T11:38:04.619Z,94322.81
2023-01-05T11:40:35.957Z,94311.66
2023-01-05T11:43:11.978Z,94317.00
2023-01-05T11:45:45.837Z,94314.28
2023-01-05T11:48:18.754Z,94307.94
2023-01-05T11:50:53.995Z,94311.28
2023-01-05T11:53:39.990Z,94303.88
2023-01-05T11:56:22.728Z,94305.00
2023-01-05T11:58:51.992Z,94304.09
2023-01-05T12:01:33.852Z,94307.75
2023-01-05T12:04:03.087Z,94311.94
2023-01-05T12:06:38.229Z,94298.25
2023-01-05T12:09:10.019Z,94293.75
2023-01-05T12:11:50.914Z,94296.13
2023-01-05T12:14:55.272Z,94290.59
2023-01-05T12:18:11.425Z,94289.09
2023-01-05T12:20:40.933Z,94289.31
2023-01-05T12:23:27.901Z,94280.59
2023-01-05T12:26:18.609Z,94271.03
2023-01-05T12:35:17.644Z,94224.97
2023-01-05T12:38:15.434Z,94222.97
2023-01-05T12:40:56.591Z,94215.25
2023-01-05T12:43:35.310Z,94217.53
2023-01-05T12:46:40.818Z,94220.75
2023-01-05T12:49:17.739Z,94221.53
2023-01-05T12:52:06.817Z,94231.88
2023-01-05T12:54:44.969Z,94244.19
2023-01-05T12:57:19.134Z,94239.72
2023-01-05T12:59:54.541Z,94246.16
2023-01-05T13:02:36.645Z,94242.03
2023-01-05T13:05:09.171Z,94239.78
2023-01-05T13:07:47.891Z,94245.44
2023-01-05T13:10:24.148Z,94248.72
2023-01-05T13:12:56.976Z,94251.69
2023-01-05T13:15:29.648Z,94250.91
2023-01-05T13:17:58.936Z,94242.22
2023-01-05T13:20:36.123Z,94249.28
2023-01-05T13:23:14.625Z,94247.84
2023-01-05T13:26:11.093Z,94253.50
2023-01-05T13:28:37.934Z,94251.06
2023-01-05T13:31:29.747Z,94248.50
2023-01-05T13:34:09.522Z,94256.34
2023-01-05T13:36:54.192Z,94246.00
2023-01-05T13:39:29.488Z,94240.84
2023-01-05T13:42:17.159Z,94233.72
2023-01-05T13:44:58.655Z,94221.41
2023-01-05T13:47:57.132Z,94212.59
2023-01-05T13:50:44.832Z,94202.94
2023-01-05T13:53:13.439Z,94207.69
2023-01-05T13:55:55.237Z,94205.66
2023-01-05T14:01:20.667Z,94196.03
2023-01-05T14:03:54.996Z,94179.50
2023-01-05T14:06:26.145Z,94180.81
2023-01-05T14:09:14.322Z,94190.34
2023-01-05T14:12:14.893Z,94195.19
2023-01-05T14:15:01.471Z,94202.19
2023-01-05T14:17:55.755Z,94194.28
2023-01-05T14:20:46.950Z,94198.38
2023-01-05T14:23:22.944Z,94197.47
2023-01-05T14:26:04.559Z,94197.66
2023-01-05T14:28:31.172Z,94207.13
2023-01-05T14:31:16.820Z,94211.63
2023-01-05T14:33:54.025Z,94214.69
2023-01-05T14:36:31.791Z,94207.88
2023-01-05T14:38:59.797Z,94209.81
2023-01-05T14:41:28.784Z,94217.41
2023-01-05T14:44:03.389Z,94212.63
2023-01-05T14:46:45.725Z,94214.91
2023-01-05T14:49:23.588Z,94220.50
2023-01-05T14:51:55.996Z,94215.91
2023-01-05T14:55:04.951Z,94227.13
2023-01-05T14:57:39.028Z,94226.06
2023-01-05T15:00:11.607Z,94229.09
2023-01-05T15:02:48.772Z,94228.19
2023-01-05T15:05:18.015Z,94234.69
2023-01-05T15:07:56.627Z,94236.34
2023-01-05T15:10:55.468Z,94232.97
2023-01-05T15:13:25.077Z,94234.25
2023-01-05T15:16:03.924Z,94232.69
2023-01-05T15:18:49.167Z,94239.94
2023-01-05T15:21:53.462Z,94243.63
2023-01-05T15:24:44.136Z,94236.38
2023-01-05T15:27:48.078Z,94239.78
2023-01-05T15:30:21.662Z,94247.63
2023-01-05T15:32:58.023Z,94248.84
2023-01-05T15:35:44.865Z,94244.88
2023-01-05T15:38:30.087Z,94251.59
2023-01-05T15:41:10.898Z,94251.25
2023-01-05T15:43:40.432Z,94250.25
2023-01-05T15:46:07.916Z,94252.56
2023-01-05T15:48:42.731Z,94229.00
2023-01-05T15:51:13.805Z,94234.50
2023-01-05T15:53:41.304Z,94246.88
2023-01-05T15:56:35.855Z,94232.13
2023-01-05T15:59:04.318Z,94226.25
2023-01-05T16:01:30.919Z,94234.44
2023-01-05T16:04:14.593Z,94231.00
2023-01-05T16:06:45.855Z,94237.22
2023-01-05T16:09:47.900Z,94225.66
2023-01-05T16:12:25.801Z,94218.56
2023-01-05T16:15:02.175Z,94210.91
2023-01-05T16:17:37.677Z,94215.31
2023-01-05T16:20:12.095Z,94237.75
2023-01-05T16:22:49.101Z,94232.72
2023-01-05T16:25:25.391Z,94232.13
2023-01-05T16:28:01.609Z,94231.88
2023-01-05T16:30:41.294Z,94246.69
2023-01-05T16:33:15.088Z,94232.00
2023-01-05T16:35:49.740Z,94242.25
2023-01-05T16:38:29.620Z,94239.13
2023-01-05T16:41:03.836Z,94248.16
2023-01-05T16:43:57.011Z,94256.72
2023-01-05T16:47:04.917Z,94252.50
2023-01-05T16:49:53.290Z,94258.66
2023-01-05T16:52:27.345Z,94252.75
2023-01-05T16:55:29.170Z,94260.47
2023-01-05T16:57:56.908Z,94258.84
2023-01-05T17:00:26.870Z,94258.38
2023-01-05T17:03:07.981Z,94265.25
2023-01-05T17:05:35.074Z,94261.09
2023-01-05T17:08:11.514Z,94266.69
2023-01-05T17:10:41.530Z,94259.53
2023-01-05T17:13:14.848Z,94252.28
2023-01-05T17:15:45.698Z,94263.25
2023-01-05T17:20:50.902Z,94259.25
2023-01-05T17:23:20.559Z,94261.91
2023-01-05T17:25:47.710Z,94264.50
2023-01-05T17:28:14.498Z,94256.47
2023-01-05T17:30:41.212Z,94244.81
2023-01-05T17:33:08.985Z,94251.31
2023-01-05T17:35:36.185Z,94240.06
2023-01-05T17:38:02.912Z,94247.03
2023-01-05T17:40:30.524Z,94243.72
2023-01-05T17:42:57.143Z,94233.38
2023-01-05T17:45:27.222Z,94242.41
2023-01-05T17:47:54.663Z,94247.94
2023-01-05T17:50:28.137Z,94247.53
2023-01-05T17:52:55.708Z,94246.69
2023-01-05T17:55:22.432Z,94241.22
2023-01-05T17:57:49.707Z,94225.91
2023-01-05T18:00:21.836Z,94234.03
2023-01-05T18:02:50.216Z,94231.59
2023-01-05T18:05:17.134Z,94232.56
2023-01-05T18:07:43.813Z,94223.41
2023-01-05T18:10:17.824Z,94230.50
2023-01-05T18:12:47.487Z,94228.69
2023-01-05T18:15:14.842Z,94229.69
2023-01-05T18:17:42.587Z,94240.25
2023-01-05T18:20:12.686Z,94234.53
2023-01-05T18:22:39.885Z,94238.06
2023-01-05T18:27:43.469Z,94233.19
2023-01-05T18:30:11.638Z,94237.75
2023-01-05T18:33:07.570Z,94238.50
2023-01-05T18:35:36.148Z,94240.66
2023-01-05T18:38:05.065Z,94244.25
2023-01-05T18:40:31.821Z,94241.16
2023-01-05T18:42:58.723Z,94242.91
2023-01-05T18:45:38.106Z,94236.28
2023-01-05T18:48:05.918Z,94250.25
2023-01-05T18:50:32.587Z,94248.63
2023-01-05T18:52:59.318Z,94250.47
2023-01-05T18:55:25.964Z,94254.75
2023-01-05T18:57:52.654Z,94257.25
2023-01-05T19:00:19.506Z,94267.81
2023-01-05T19:02:46.172Z,94261.09
2023-01-05T19:05:12.800Z,94267.16
2023-01-05T19:07:39.943Z,94268.34
2023-01-05T19:10:07.218Z,94266.41
2023-01-05T19:12:33.918Z,94279.44
2023-01-05T19:15:00.693Z,94293.22
2023-01-05T19:17:27.964Z,94295.75
2023-01-05T19:19:55.247Z,94287.94
2023-01-05T19:22:21.843Z,94295.31
2023-01-05T19:24:48.686Z,94297.66
2023-01-05T19:27:15.733Z,94296.28
2023-01-05T19:29:42.432Z,94290.91
2023-01-05T19:32:09.284Z,94297.38
2023-01-05T19:34:36.231Z,94296.59
2023-01-05T19:37:05.732Z,94302.13
2023-01-05T19:39:32.602Z,94302.03
2023-01-05T19:41:59.260Z,94303.28
2023-01-05T19:44:30.026Z,94314.09
2023-01-05T19:47:00.531Z,94323.78
2023-01-05T19:49:27.976Z,94312.09
2023-01-05T19:51:55.771Z,94309.28
2023-01-05T19:54:26.344Z,94304.31
2023-01-05T19:56:54.742Z,94307.50
2023-01-05T19:59:29.191Z,94310.97
2023-01-05T20:01:56.457Z,94299.25
2023-01-05T20:04:23.131Z,94298.09
2023-01-05T20:06:49.880Z,94292.75
2023-01-05T20:09:19.088Z,94298.56
2023-01-05T20:11:48.972Z,94288.16
2023-01-05T20:14:32.035Z,94285.09
2023-01-05T20:17:09.451Z,94270.53
2023-01-05T20:19:38.482Z,94281.19
2023-01-05T20:22:07.615Z,94267.22
2023-01-05T20:24:39.453Z,94255.09
2023-01-05T20:27:09.309Z,94255.56
2023-01-05T20:29:36.061Z,94264.72
2023-01-05T20:32:28.818Z,94279.72
2023-01-05T20:35:00.193Z,94283.56
2023-01-05T20:37:29.043Z,94290.97
2023-01-05T20:39:58.265Z,94297.78
2023-01-05T20:42:27.336Z,94306.09
2023-01-05T20:44:54.004Z,94301.34
2023-01-05T20:47:20.646Z,94312.56
2023-01-05T20:49:47.527Z,94304.78
2023-01-05T20:52:16.105Z,94304.31
2023-01-05T20:54:42.901Z,94305.53
2023-01-05T20:57:10.413Z,94298.19
2023-01-05T20:59:38.918Z,94294.06
2023-01-05T21:02:12.283Z,94299.06
2023-01-05T21:04:44.984Z,94282.13
2023-01-05T21:07:11.763Z,94278.53
2023-01-05T21:09:38.591Z,94290.44
2023-01-05T21:12:05.394Z,94306.91
2023-01-05T21:14:32.049Z,94302.34
2023-01-05T21:16:58.786Z,94317.72
2023-01-05T21:19:25.739Z,94324.50
2023-01-05T21:21:56.062Z,94336.81
2023-01-05T21:24:24.015Z,94330.41
2023-01-05T21:26:50.826Z,94324.34
2023-01-05T21:29:20.344Z,94325.47
2023-01-05T21:31:47.146Z,94341.72
2023-01-05T21:34:15.078Z,94336.94
2023-01-05T21:36:45.316Z,94326.47
2023-01-05T21:39:19.986Z,94351.41
2023-01-05T21:42:05.954Z,94344.16
2023-01-05T21:44:33.084Z,94350.19
2023-01-05T21:47:00.030Z,94358.28
2023-01-05T21:49:27.235Z,94350.88
2023-01-05T21:52:12.440Z,94354.72
2023-01-05T21:54:57.747Z,94355.53
2023-01-05T21:57:24.774Z,94359.19
2023-01-05T21:59:51.382Z,94350.28
2023-01-05T22:02:21.559Z,94360.94
2023-01-05T22:04:48.143Z,94360.59
2023-01-05T22:07:14.883Z,94373.75
2023-01-05T22:09:41.622Z,94362.91
2023-01-05T22:12:09.261Z,94359.13
2023-01-05T22:14:42.446Z,94363.00
2023-01-05T22:17:09.695Z,94365.03
2023-01-05T22:19:36.512Z,94378.66
2023-01-05T22:22:03.736Z,94373.47
2023-01-05T22:24:30.406Z,94387.13
2023-01-05T22:26:57.070Z,94379.00
2023-01-05T22:29:23.917Z,94391.50
2023-01-05T22:31:51.037Z,94390.38
2023-01-05T22:34:18.001Z,94391.84
2023-01-05T22:36:45.181Z,94395.38
2023-01-05T22:39:12.391Z,94408.06
2023-01-05T22:41:39.344Z,94406.81
2023-01-05T22:44:06.367Z,94413.19
2023-01-05T22:46:33.608Z,94399.69
2023-01-05T22:49:01.096Z,94403.34
2023-01-05T22:51:33.391Z,94402.00
2023-01-05T22:54:00.833Z,94402.25
2023-01-05T22:56:29.256Z,94400.22
2023-01-05T22:58:56.866Z,94406.06
2023-01-05T23:01:26.760Z,94413.22
2023-01-05T23:03:55.219Z,94404.41
2023-01-05T23:06:22.449Z,94419.13
2023-01-05T23:08:51.099Z,94418.97
2023-01-05T23:11:24.059Z,94416.38
2023-01-05T23:13:52.331Z,94417.84
2023-01-05T23:16:19.273Z,94416.59
2023-01-05T23:18:46.318Z,94413.06
2023-01-05T23:21:14.247Z,94421.03
2023-01-05T23:23:41.449Z,94426.44
2023-01-05T23:26:09.497Z,94427.66
2023-01-05T23:28:36.635Z,94424.53
2023-01-05T23:31:04.715Z,94418.91
2023-01-05T23:33:34.876Z,94429.66
2023-01-05T23:36:02.400Z,94424.47
2023-01-05T23:38:29.269Z,94421.97
2023-01-05T23:40:57.578Z,94416.34
2023-01-05T23:43:26.315Z,94426.56
2023-01-05T23:46:00.340Z,94425.31
2023-01-05T23:48:27.537Z,94429.78
2023-01-05T23:50:55.304Z,94442.53
2023-01-05T23:53:22.336Z,94459.75
2023-01-05T23:55:48.971Z,94461.19
2023-01-05T23:58:15.675Z,94469.75
